createdAt,value
2018-11-29T04:17:46.227Z,37.35
2018-11-29T04:20:16.628Z,42.78
2018-11-29T04:22:45.574Z,39.13
2018-11-29T04:25:14.669Z,37.17
2018-11-29T04:27:43.276Z,36.10
2018-11-29T04:30:14.298Z,33.43
2018-11-29T04:32:42.930Z,41.77
2018-11-29T04:35:11.490Z,37.83
2018-11-29T04:37:40.368Z,41.87
2018-11-29T04:40:12.360Z,36.57
2018-11-29T04:42:40.978Z,41.47
2018-11-29T04:45:13.999Z,40.73
2018-11-29T04:47:42.489Z,48.40
2018-11-29T04:50:10.821Z,41.90
2018-11-29T04:52:40.338Z,45.00
2018-11-29T04:55:15.357Z,44.58
2018-11-29T04:57:43.664Z,44.17
2018-11-29T05:00:15.162Z,44.30
2018-11-29T05:02:43.806Z,41.77
2018-11-29T05:05:12.671Z,37.97
2018-11-29T05:07:41.618Z,45.35
2018-11-29T05:10:11.319Z,38.83
2018-11-29T05:12:40.170Z,40.70
2018-11-29T05:15:10.103Z,49.30
2018-11-29T05:17:38.758Z,42.00
2018-11-29T05:20:07.448Z,38.17
2018-11-29T05:22:36.235Z,39.20
2018-11-29T05:25:05.624Z,37.10
2018-11-29T05:27:34.513Z,49.13
2018-11-29T05:30:03.290Z,45.98
2018-11-29T05:32:31.619Z,46.87
2018-11-29T05:35:00.195Z,46.10
2018-11-29T05:37:28.534Z,50.57
2018-11-29T05:39:56.882Z,48.33
2018-11-29T05:42:25.353Z,43.30
2018-11-29T05:44:53.683Z,44.67
2018-11-29T05:47:22.016Z,49.07
2018-11-29T05:49:50.310Z,50.23
2018-11-29T05:52:18.644Z,63.03
2018-11-29T05:54:46.943Z,50.23
2018-11-29T05:57:15.981Z,53.83
2018-11-29T05:59:44.571Z,47.17
2018-11-29T06:02:13.202Z,46.20
2018-11-29T06:04:42.344Z,54.70
2018-11-29T06:07:10.946Z,56.10
2018-11-29T06:09:39.581Z,48.13
2018-11-29T06:12:08.103Z,68.20
2018-11-29T06:14:36.456Z,48.13
2018-11-29T06:17:05.417Z,53.83
2018-11-29T06:19:34.002Z,67.60
2018-11-29T06:22:02.512Z,46.37
2018-11-29T06:24:30.824Z,64.03
2018-11-29T06:26:59.380Z,43.60
2018-11-29T06:29:27.859Z,39.43
2018-11-29T06:31:56.169Z,57.67
2018-11-29T06:34:24.484Z,47.40
2018-11-29T06:36:53.090Z,42.67
2018-11-29T06:39:21.399Z,43.10
2018-11-29T06:41:50.026Z,57.62
2018-11-29T06:44:18.539Z,43.37
2018-11-29T06:46:47.463Z,47.65
2018-11-29T06:49:16.312Z,38.77
2018-11-29T06:51:45.287Z,47.03
2018-11-29T06:54:14.918Z,55.12
2018-11-29T06:56:43.860Z,53.08
2018-11-29T06:59:12.906Z,45.67
2018-11-29T07:01:41.470Z,53.50
2018-11-29T07:04:09.758Z,44.53
2018-11-29T07:06:38.341Z,44.50
2018-11-29T07:09:08.567Z,46.03
2018-11-29T07:11:37.174Z,44.85
2018-11-29T07:14:05.892Z,52.03
2018-11-29T07:16:34.203Z,39.87
2018-11-29T07:19:02.994Z,37.78
2018-11-29T07:21:42.938Z,49.70
2018-11-29T07:24:11.574Z,43.25
2018-11-29T07:26:40.176Z,45.30
2018-11-29T07:29:09.310Z,47.90
2018-11-29T07:31:38.010Z,48.87
2018-11-29T07:34:07.090Z,46.63
2018-11-29T07:36:35.771Z,46.75
2018-11-29T07:39:05.092Z,43.23
2018-11-29T07:41:33.459Z,41.97
2018-11-29T07:44:02.310Z,40.60
2018-11-29T07:46:30.874Z,48.60
2018-11-29T07:48:59.498Z,44.53
2018-11-29T07:51:27.800Z,50.87
2018-11-29T07:53:56.631Z,51.60
2018-11-29T07:56:25.356Z,46.50
2018-11-29T07:58:53.793Z,47.17
2018-11-29T08:01:22.181Z,41.37
2018-11-29T08:03:50.477Z,32.90
2018-11-29T08:06:19.172Z,46.97
2018-11-29T08:08:47.466Z,39.57
2018-11-29T08:11:16.282Z,42.23
2018-11-29T08:13:44.613Z,45.00
2018-11-29T08:16:13.208Z,37.88
2018-11-29T08:18:41.991Z,36.80
2018-11-29T08:21:10.729Z,31.07
2018-11-29T08:23:39.341Z,32.00
2018-11-29T08:26:07.641Z,31.47
2018-11-29T08:28:36.558Z,28.33
2018-11-29T08:31:05.066Z,23.27
2018-11-29T08:33:33.890Z,21.15
2018-11-29T08:36:02.461Z,19.67
2018-11-29T08:38:31.493Z,17.12
2018-11-29T08:41:00.038Z,22.77
2018-11-29T08:43:28.515Z,23.03
2018-11-29T08:45:56.803Z,22.43
2018-11-29T08:48:25.131Z,24.63
2018-11-29T08:50:53.573Z,19.17
2018-11-29T08:53:21.861Z,23.30
2018-11-29T08:55:50.508Z,17.40
2018-11-29T08:58:19.113Z,26.80
2018-11-29T09:00:47.902Z,28.12
2018-11-29T09:03:16.184Z,22.30
2018-11-29T09:05:44.870Z,19.93
2018-11-29T09:08:13.536Z,26.48
2018-11-29T09:10:41.829Z,27.13
2018-11-29T09:13:10.205Z,28.37
2018-11-29T09:15:38.792Z,27.90
2018-11-29T09:18:07.794Z,28.10
2018-11-29T09:20:36.448Z,20.25
2018-11-29T09:23:05.454Z,24.33
2018-11-29T09:25:34.359Z,27.00
2018-11-29T09:28:03.611Z,26.53
2018-11-29T09:30:32.065Z,22.33
2018-11-29T09:33:00.650Z,28.47
2018-11-29T09:35:29.377Z,23.60
2018-11-29T09:37:58.051Z,29.93
2018-11-29T09:40:26.955Z,24.10
2018-11-29T09:42:55.889Z,29.15
2018-11-29T09:45:24.620Z,31.37
2018-11-29T09:47:54.639Z,21.07
2018-11-29T09:50:23.730Z,25.40
2018-11-29T09:52:52.287Z,30.07
2018-11-29T09:55:21.177Z,23.30
2018-11-29T09:57:50.669Z,26.23
2018-11-29T10:00:27.119Z,28.17
2018-11-29T10:03:03.006Z,29.70
2018-11-29T10:05:31.352Z,18.67
2018-11-29T10:07:59.921Z,20.35
2018-11-29T10:10:28.806Z,28.63
2018-11-29T10:12:57.228Z,25.70
2018-11-29T10:15:25.798Z,24.70
2018-11-29T10:17:54.379Z,25.53
2018-11-29T10:20:22.942Z,30.30
2018-11-29T10:22:51.227Z,28.47
2018-11-29T10:25:19.873Z,25.40
2018-11-29T10:27:50.839Z,22.97
2018-11-29T10:30:23.118Z,36.33
2018-11-29T10:32:51.723Z,32.60
2018-11-29T10:35:20.249Z,32.33
2018-11-29T10:37:48.935Z,28.13
2018-11-29T10:40:17.301Z,28.83
2018-11-29T10:42:45.560Z,31.13
2018-11-29T10:45:15.325Z,29.57
2018-11-29T10:47:51.959Z,39.40
2018-11-29T10:50:14.559Z,24.00
2018-11-29T10:52:43.614Z,27.93
2018-11-29T10:55:16.058Z,41.23
2018-11-29T10:57:44.467Z,40.37
2018-11-29T11:00:24.412Z,32.80
2018-11-29T11:02:59.196Z,33.07
2018-11-29T11:05:27.776Z,30.92
2018-11-29T11:07:56.497Z,32.70
2018-11-29T11:10:25.431Z,31.68
2018-11-29T11:12:54.336Z,34.55
2018-11-29T11:15:23.230Z,28.50
2018-11-29T11:17:51.885Z,33.00
2018-11-29T11:20:20.220Z,35.93
2018-11-29T11:22:48.768Z,32.63
2018-11-29T11:25:17.778Z,28.65
2018-11-29T11:27:46.389Z,26.60
2018-11-29T11:30:18.128Z,34.10
2018-11-29T11:32:47.492Z,38.07
2018-11-29T11:35:15.804Z,32.98
2018-11-29T11:37:44.134Z,26.63
2018-11-29T11:40:15.267Z,27.37
2018-11-29T11:42:44.081Z,28.47
2018-11-29T11:45:14.362Z,32.27
2018-11-29T11:47:43.010Z,28.07
2018-11-29T11:50:18.330Z,23.80
2018-11-29T11:52:46.995Z,36.27
2018-11-29T11:55:18.995Z,28.10
2018-11-29T11:57:45.620Z,33.48
2018-11-29T12:00:18.493Z,36.73
2018-11-29T12:02:47.747Z,30.90
2018-11-29T12:05:16.582Z,32.60
2018-11-29T12:07:45.623Z,28.17
2018-11-29T12:10:15.211Z,29.72
2018-11-29T12:12:43.598Z,28.43
2018-11-29T12:15:13.501Z,32.85
2018-11-29T12:17:42.554Z,35.10
2018-11-29T12:20:13.072Z,38.90
2018-11-29T12:22:42.507Z,31.60
2018-11-29T12:25:13.070Z,51.67
2018-11-29T12:27:41.347Z,25.00
2018-11-29T12:30:19.328Z,30.33
2018-11-29T12:32:48.174Z,32.17
2018-11-29T12:35:17.683Z,26.95
2018-11-29T12:37:46.195Z,35.40
2018-11-29T12:40:15.475Z,21.97
2018-11-29T12:42:43.855Z,33.00
2018-11-29T12:45:14.162Z,26.47
2018-11-29T12:47:42.786Z,26.17
2018-11-29T12:50:15.225Z,27.37
2018-11-29T12:52:43.595Z,22.27
2018-11-29T12:55:12.642Z,31.60
2018-11-29T12:57:42.139Z,30.55
2018-11-29T13:00:13.723Z,30.87
2018-11-29T13:02:49.506Z,27.87
2018-11-29T13:05:18.216Z,30.60
2018-11-29T13:07:46.648Z,29.70
2018-11-29T13:10:15.997Z,32.13
2018-11-29T13:12:44.369Z,35.33
2018-11-29T13:15:16.141Z,32.25
2018-11-29T13:17:45.014Z,35.33
2018-11-29T13:20:15.113Z,33.30
2018-11-29T13:22:43.659Z,27.30
2018-11-29T13:25:15.054Z,34.60
2018-11-29T13:27:44.266Z,29.23
2018-11-29T13:30:14.024Z,29.32
2018-11-29T13:32:42.508Z,32.30
2018-11-29T13:35:16.536Z,29.87
2018-11-29T13:37:47.871Z,35.23
2018-11-29T13:42:44.984Z,36.83
2018-11-29T13:45:13.659Z,29.40
2018-11-29T13:47:42.630Z,35.35
2018-11-29T13:50:14.124Z,35.70
2018-11-29T13:52:42.823Z,28.70
2018-11-29T13:55:12.588Z,26.30
2018-11-29T13:57:42.285Z,30.05
2018-11-29T14:00:14.825Z,33.27
2018-11-29T14:02:46.955Z,29.42
2018-11-29T14:05:12.820Z,35.23
2018-11-29T14:07:41.112Z,30.40
2018-11-29T14:10:12.000Z,33.03
2018-11-29T14:12:40.306Z,29.67
2018-11-29T14:15:11.772Z,31.57
2018-11-29T14:17:40.385Z,34.25
2018-11-29T14:20:09.870Z,33.53
2018-11-29T14:22:38.226Z,30.70
2018-11-29T14:25:08.947Z,27.07
2018-11-29T14:27:38.137Z,29.90
2018-11-29T14:30:15.928Z,24.77
2018-11-29T14:32:45.001Z,39.25
2018-11-29T14:35:14.154Z,22.23
2018-11-29T14:37:42.835Z,27.10
2018-11-29T14:40:14.114Z,28.40
2018-11-29T14:42:42.778Z,25.10
2018-11-29T14:45:18.822Z,18.93
2018-11-29T14:47:47.886Z,38.50
2018-11-29T14:50:19.925Z,34.13
2018-11-29T14:52:48.261Z,21.63
2018-11-29T14:55:16.586Z,32.00
2018-11-29T14:57:45.009Z,35.27
2018-11-29T15:00:14.256Z,21.85
2018-11-29T15:02:43.135Z,32.53
2018-11-29T15:05:17.932Z,26.33
2018-11-29T15:07:46.450Z,31.10
2018-11-29T15:10:14.739Z,34.20
2018-11-29T15:12:43.409Z,39.23
2018-11-29T15:15:12.345Z,38.23
2018-11-29T15:17:41.543Z,37.20
2018-11-29T15:20:12.578Z,49.10
2018-11-29T15:22:41.227Z,44.67
2018-11-29T15:26:18.267Z,35.63
2018-11-29T15:28:46.996Z,41.50
2018-11-29T15:31:15.321Z,44.93
2018-11-29T15:33:43.874Z,39.83
2018-11-29T15:36:12.158Z,43.97
2018-11-29T15:38:40.466Z,43.27
2018-11-29T15:41:09.134Z,45.33
2018-11-29T15:43:37.595Z,43.70
2018-11-29T15:46:06.510Z,38.83
2018-11-29T15:48:35.167Z,47.05
2018-11-29T15:51:04.236Z,40.17
2018-11-29T15:53:32.689Z,39.57
2018-11-29T15:56:01.286Z,44.30
2018-11-29T15:58:29.985Z,46.33
2018-11-29T16:00:58.267Z,38.27
2018-11-29T16:03:26.945Z,42.40
2018-11-29T16:05:55.505Z,49.75
2018-11-29T16:08:24.080Z,43.80
2018-11-29T16:10:53.002Z,36.95
2018-11-29T16:13:21.443Z,46.97
2018-11-29T16:15:49.808Z,38.30
2018-11-29T16:18:18.397Z,44.38
2018-11-29T16:20:47.093Z,48.83
2018-11-29T16:23:15.669Z,43.80
2018-11-29T16:25:43.978Z,40.55
2018-11-29T16:28:12.537Z,47.40
2018-11-29T16:30:52.757Z,48.23
2018-11-29T16:33:28.082Z,41.30
2018-11-29T16:35:56.405Z,48.13
2018-11-29T16:38:24.701Z,47.00
2018-11-29T16:40:53.216Z,44.00
2018-11-29T16:43:21.546Z,50.40
2018-11-29T16:45:50.314Z,40.40
2018-11-29T16:48:18.589Z,45.23
2018-11-29T16:50:47.139Z,46.40
2018-11-29T16:53:15.533Z,41.83
2018-11-29T16:55:44.080Z,43.00
2018-11-29T16:58:15.047Z,40.67
2018-11-29T17:00:43.602Z,40.08
2018-11-29T17:03:11.890Z,40.53
2018-11-29T17:05:40.578Z,54.20
2018-11-29T17:08:08.914Z,42.23
2018-11-29T17:10:37.501Z,44.50
2018-11-29T17:13:09.155Z,48.60
2018-11-29T17:15:38.037Z,42.40
2018-11-29T17:18:07.526Z,37.70
2018-11-29T17:20:36.818Z,44.50
2018-11-29T17:23:06.675Z,41.80
2018-11-29T17:25:35.963Z,45.17
2018-11-29T17:28:04.562Z,44.57
2018-11-29T17:30:33.207Z,43.33
2018-11-29T17:33:01.574Z,53.00
2018-11-29T17:35:30.287Z,46.83
2018-11-29T17:37:59.892Z,46.60
2018-11-29T17:40:28.434Z,37.57
2018-11-29T17:42:57.413Z,43.27
2018-11-29T17:45:26.850Z,41.33
2018-11-29T17:47:57.704Z,50.33
2018-11-29T17:50:29.807Z,39.10
2018-11-29T17:52:58.271Z,41.53
2018-11-29T17:55:27.030Z,50.00
2018-11-29T17:57:55.353Z,43.30
2018-11-29T18:00:25.162Z,46.10
2018-11-29T18:02:54.108Z,46.67
2018-11-29T18:05:23.023Z,46.75
2018-11-29T18:07:51.436Z,57.07
2018-11-29T18:10:23.446Z,47.63
2018-11-29T18:12:53.761Z,54.43
2018-11-29T18:15:25.218Z,51.30
2018-11-29T18:17:54.126Z,45.90
2018-11-29T18:20:22.418Z,44.10
2018-11-29T18:22:50.726Z,47.50
2018-11-29T18:25:19.317Z,44.38
2018-11-29T18:27:49.639Z,42.38
2018-11-29T18:30:19.665Z,48.45
2018-11-29T18:32:49.288Z,44.15
2018-11-29T18:35:17.686Z,54.27
2018-11-29T18:37:46.342Z,39.77
2018-11-29T18:40:18.613Z,46.87
2018-11-29T18:42:48.162Z,48.83
2018-11-29T18:45:18.003Z,42.70
2018-11-29T18:47:48.333Z,42.87
2018-11-29T18:50:19.189Z,41.83
2018-11-29T18:52:47.573Z,40.40
2018-11-29T18:55:16.370Z,38.95
2018-11-29T18:57:44.674Z,44.60
2018-11-29T19:00:16.424Z,47.70
2018-11-29T19:02:45.231Z,39.33
2018-11-29T19:05:14.162Z,35.60
2018-11-29T19:07:43.220Z,43.80
2018-11-29T19:10:13.243Z,43.47
2018-11-29T19:13:14.797Z,48.23
2018-11-29T19:15:43.105Z,44.73
2018-11-29T19:18:11.682Z,45.83
2018-11-29T19:20:40.279Z,39.13
2018-11-29T19:23:09.165Z,38.20
2018-11-29T19:25:37.784Z,46.57
2018-11-29T19:28:07.387Z,47.47
2018-11-29T19:30:36.618Z,42.05
2018-11-29T19:33:17.138Z,40.27
2018-11-29T19:35:41.715Z,44.67
2018-11-29T19:38:11.100Z,46.80
2018-11-29T19:40:39.724Z,43.98
2018-11-29T19:43:08.479Z,39.20
2018-11-29T19:45:36.883Z,47.10
2018-11-29T19:48:07.137Z,46.77
2018-11-29T19:50:35.501Z,42.77
2018-11-29T19:53:06.647Z,44.23
2018-11-29T19:55:35.417Z,44.23
2018-11-29T19:58:03.986Z,46.80
2018-11-29T20:00:32.840Z,45.03
2018-11-29T20:03:02.009Z,40.43
2018-11-29T20:05:30.668Z,42.70
2018-11-29T20:07:59.000Z,43.10
2018-11-29T20:10:28.814Z,43.92
2018-11-29T20:13:02.534Z,39.25
2018-11-29T20:15:31.770Z,38.83
2018-11-29T20:18:00.091Z,45.97
2018-11-29T20:20:28.682Z,45.23
2018-11-29T20:22:57.593Z,46.80
2018-11-29T20:25:26.709Z,42.23
2018-11-29T20:27:55.268Z,42.80
2018-11-29T20:30:24.649Z,44.93
2018-11-29T20:32:54.932Z,47.98
2018-11-29T20:35:24.207Z,46.02
2018-11-29T20:37:53.342Z,50.33
2018-11-29T20:40:24.697Z,41.10
2018-11-29T20:42:55.076Z,42.30
2018-11-29T20:45:24.902Z,40.73
2018-11-29T20:47:53.393Z,40.77
2018-11-29T20:50:23.418Z,44.30
2018-11-29T20:52:53.116Z,44.83
2018-11-29T20:55:25.013Z,45.10
2018-11-29T20:57:53.953Z,56.77
2018-11-29T21:00:22.609Z,41.27
2018-11-29T21:02:51.118Z,45.77
2018-11-29T21:05:21.432Z,41.73
2018-11-29T21:07:51.564Z,37.48
2018-11-29T21:10:21.431Z,44.03
2018-11-29T21:12:49.901Z,42.03
2018-11-29T21:15:18.237Z,47.47
2018-11-29T21:17:47.135Z,41.10
2018-11-29T21:20:17.882Z,45.50
2018-11-29T21:22:47.277Z,36.77
2018-11-29T21:25:18.752Z,41.80
2018-11-29T21:27:47.343Z,49.83
2018-11-29T21:30:16.286Z,41.53
2018-11-29T21:32:45.383Z,42.40
2018-11-29T21:35:14.872Z,51.40
2018-11-29T21:37:43.763Z,40.53
2018-11-29T21:40:16.172Z,45.50
2018-11-29T21:42:44.781Z,44.10
2018-11-29T21:45:13.180Z,45.67
2018-11-29T21:47:41.571Z,45.00
2018-11-29T21:50:09.873Z,48.73
2018-11-29T21:52:38.197Z,42.73
2018-11-29T21:55:07.229Z,46.40
2018-11-29T21:57:35.797Z,54.10
2018-11-29T22:00:08.106Z,45.93
2018-11-29T22:02:41.625Z,46.80
2018-11-29T22:05:05.694Z,49.57
2018-11-29T22:07:34.001Z,46.80
2018-11-29T22:10:03.222Z,42.20
2018-11-29T22:12:31.594Z,41.90
2018-11-29T22:15:00.250Z,41.37
2018-11-29T22:17:28.862Z,42.77
2018-11-29T22:19:58.398Z,55.70
2018-11-29T22:22:28.405Z,52.60
2018-11-29T22:24:54.513Z,44.40
2018-11-29T22:27:22.769Z,46.93
2018-11-29T22:29:51.104Z,43.73
2018-11-29T22:32:19.644Z,42.40
2018-11-29T22:34:48.186Z,42.85
2018-11-29T22:37:16.705Z,39.30
2018-11-29T22:39:45.045Z,49.13
2018-11-29T22:42:13.341Z,46.60
2018-11-29T22:44:41.924Z,41.73
2018-11-29T22:47:10.509Z,45.58
2018-11-29T22:49:38.938Z,47.83
2018-11-29T22:52:07.815Z,46.10
2018-11-29T22:54:36.086Z,47.43
2018-11-29T22:57:04.705Z,45.17
2018-11-29T22:59:33.009Z,42.23
